createdAt,value
2022-08-03T00:00:56.353Z,0
2022-08-03T00:04:21.674Z,0
2022-08-03T00:07:46.963Z,0
2022-08-03T00:11:12.294Z,0
2022-08-03T00:14:37.641Z,0
2022-08-03T00:18:02.944Z,0
2022-08-03T00:21:28.259Z,0
2022-08-03T00:24:53.632Z,0
2022-08-03T00:28:18.945Z,0
2022-08-03T00:31:51.732Z,0
2022-08-03T00:35:11.369Z,0
2022-08-03T00:38:34.880Z,0
2022-08-03T00:42:00.249Z,0
2022-08-03T00:45:25.627Z,0
2022-08-03T00:48:50.969Z,0
2022-08-03T00:52:16.343Z,0
2022-08-03T00:55:41.714Z,0
2022-08-03T00:59:07.054Z,0
2022-08-03T01:02:32.383Z,0
2022-08-03T01:05:57.713Z,0
2022-08-03T01:09:23.069Z,0
2022-08-03T01:12:48.401Z,0
2022-08-03T01:16:13.753Z,0
2022-08-03T01:19:39.097Z,0
2022-08-03T01:23:04.478Z,0
2022-08-03T01:26:29.822Z,0
2022-08-03T01:29:55.178Z,0
2022-08-03T01:33:20.535Z,0
2022-08-03T01:36:45.880Z,0
2022-08-03T01:40:11.241Z,0
2022-08-03T01:43:55.024Z,0
2022-08-03T01:47:01.970Z,0
2022-08-03T01:50:27.339Z,0
2022-08-03T01:53:52.668Z,0
2022-08-03T01:57:17.995Z,0
2022-08-03T02:00:43.429Z,0
2022-08-03T02:04:08.788Z,0
2022-08-03T02:07:34.112Z,0
2022-08-03T02:10:59.473Z,0
2022-08-03T02:14:24.834Z,0
2022-08-03T02:17:50.186Z,0
2022-08-03T02:21:21.114Z,0
2022-08-03T02:24:40.909Z,0
2022-08-03T02:28:06.258Z,0
2022-08-03T02:31:31.624Z,0
2022-08-03T02:34:56.967Z,0
2022-08-03T02:38:22.334Z,0
2022-08-03T02:41:47.690Z,0
2022-08-03T02:45:13.055Z,0
2022-08-03T02:48:38.405Z,0
2022-08-03T02:52:03.796Z,0
2022-08-03T02:55:29.154Z,0
2022-08-03T02:58:54.634Z,0
2022-08-03T03:02:20.057Z,0
2022-08-03T03:05:53.875Z,0
2022-08-03T03:09:11.799Z,0
2022-08-03T03:12:37.201Z,0
2022-08-03T03:16:02.644Z,0
2022-08-03T03:19:27.987Z,0
2022-08-03T03:22:53.396Z,0
2022-08-03T03:26:18.777Z,0
2022-08-03T03:29:44.170Z,0
2022-08-03T03:33:09.585Z,0
2022-08-03T03:36:34.925Z,0
2022-08-03T03:40:00.331Z,0
2022-08-03T03:43:25.681Z,0
2022-08-03T03:46:51.113Z,0
2022-08-03T03:50:16.497Z,0
2022-08-03T03:53:41.860Z,0
2022-08-03T03:57:07.257Z,0
2022-08-03T04:00:32.645Z,0
2022-08-03T04:03:57.991Z,0
2022-08-03T04:07:23.358Z,0
2022-08-03T04:10:48.797Z,0
2022-08-03T04:14:14.173Z,0
2022-08-03T04:17:39.552Z,0
2022-08-03T04:21:04.906Z,0
2022-08-03T04:24:30.247Z,0
2022-08-03T04:28:07.607Z,0
2022-08-03T04:31:20.993Z,0
2022-08-03T04:34:46.378Z,0
2022-08-03T04:38:11.714Z,0
2022-08-03T04:42:04.516Z,0
2022-08-03T04:45:02.544Z,0
2022-08-03T04:48:27.930Z,6
2022-08-03T04:51:53.326Z,6
2022-08-03T04:55:18.638Z,11
2022-08-03T04:58:43.971Z,23
2022-08-03T05:02:09.355Z,28
2022-08-03T05:05:50.457Z,28
2022-08-03T05:08:59.932Z,34
2022-08-03T05:12:28.316Z,34
2022-08-03T05:15:50.670Z,39
2022-08-03T05:19:15.996Z,39
2022-08-03T05:22:41.316Z,39
2022-08-03T05:26:06.638Z,34
2022-08-03T05:29:31.951Z,34
2022-08-03T05:32:57.319Z,34
2022-08-03T05:36:22.652Z,34
2022-08-03T05:39:48.000Z,34
2022-08-03T05:43:13.342Z,39
2022-08-03T05:46:38.654Z,39
2022-08-03T05:50:03.949Z,39
2022-08-03T05:53:29.291Z,45
2022-08-03T05:56:54.678Z,45
2022-08-03T06:00:19.998Z,45
2022-08-03T06:03:45.315Z,45
2022-08-03T06:07:10.623Z,45
2022-08-03T06:10:38.216Z,45
2022-08-03T06:14:01.300Z,51
2022-08-03T06:17:26.667Z,51
2022-08-03T06:20:52.269Z,56
2022-08-03T06:24:17.273Z,68
2022-08-03T06:27:42.645Z,68
2022-08-03T06:31:07.953Z,73
2022-08-03T06:34:35.515Z,73
2022-08-03T06:37:58.576Z,73
2022-08-03T06:41:23.899Z,73
2022-08-03T06:44:49.216Z,73
2022-08-03T06:48:14.552Z,68
2022-08-03T06:52:02.808Z,62
2022-08-03T06:55:05.190Z,56
2022-08-03T06:58:30.510Z,56
2022-08-03T07:01:55.994Z,56
2022-08-03T07:05:21.179Z,51
2022-08-03T07:08:49.489Z,51
2022-08-03T07:12:11.841Z,51
2022-08-03T07:15:38.196Z,51
2022-08-03T07:19:02.626Z,51
2022-08-03T07:22:28.009Z,45
2022-08-03T07:25:53.332Z,45
2022-08-03T07:29:18.659Z,45
2022-08-03T07:32:49.917Z,51
2022-08-03T07:36:09.334Z,62
2022-08-03T07:39:34.672Z,62
2022-08-03T07:43:00.024Z,68
2022-08-03T07:46:25.394Z,73
2022-08-03T07:49:50.737Z,73
2022-08-03T07:53:16.067Z,73
2022-08-03T07:56:41.380Z,73
2022-08-03T08:00:06.691Z,68
2022-08-03T08:03:41.201Z,68
2022-08-03T08:06:57.371Z,62
2022-08-03T08:10:22.710Z,56
2022-08-03T08:13:48.024Z,56
2022-08-03T08:17:13.355Z,56
2022-08-03T08:20:38.691Z,56
2022-08-03T08:24:07.253Z,62
2022-08-03T08:28:22.130Z,56
2022-08-03T08:30:55.692Z,56
2022-08-03T08:34:21.005Z,51
2022-08-03T08:37:50.688Z,51
2022-08-03T08:41:11.691Z,51
2022-08-03T08:44:37.053Z,51
2022-08-03T08:48:05.473Z,45
2022-08-03T08:51:50.652Z,45
2022-08-03T08:54:53.177Z,39
2022-08-03T08:58:19.818Z,39
2022-08-03T09:01:44.732Z,39
2022-08-03T09:05:10.126Z,39
2022-08-03T09:08:35.444Z,39
2022-08-03T09:12:14.550Z,39
2022-08-03T09:15:26.143Z,39
2022-08-03T09:18:51.463Z,39
2022-08-03T09:22:16.791Z,39
2022-08-03T09:25:42.109Z,39
2022-08-03T09:29:13.102Z,45
2022-08-03T09:32:32.876Z,45
2022-08-03T09:35:58.208Z,45
2022-08-03T09:39:37.502Z,51
2022-08-03T09:42:48.860Z,51
2022-08-03T09:46:14.187Z,51
2022-08-03T09:49:41.020Z,56
2022-08-03T09:53:04.863Z,56
2022-08-03T09:56:35.325Z,62
2022-08-03T10:00:03.188Z,62
2022-08-03T10:03:20.904Z,62
2022-08-03T10:06:46.268Z,68
2022-08-03T10:10:29.234Z,73
2022-08-03T10:13:36.972Z,73
2022-08-03T10:17:02.296Z,79
2022-08-03T10:20:27.632Z,84
2022-08-03T10:23:52.936Z,84
2022-08-03T10:27:18.584Z,90
2022-08-03T10:30:43.747Z,84
2022-08-03T10:34:09.073Z,90
2022-08-03T10:37:34.455Z,90
2022-08-03T10:40:59.814Z,96
2022-08-03T10:44:25.150Z,96
2022-08-03T10:47:50.479Z,96
2022-08-03T10:51:15.809Z,96
2022-08-03T10:54:41.130Z,96
2022-08-03T10:58:10.827Z,96
2022-08-03T11:01:33.009Z,96
2022-08-03T11:04:57.136Z,101
2022-08-03T11:08:22.478Z,101
2022-08-03T11:11:47.844Z,101
2022-08-03T11:15:13.148Z,101
2022-08-03T11:18:38.443Z,96
2022-08-03T11:22:03.804Z,96
2022-08-03T11:25:34.801Z,96
2022-08-03T11:28:54.500Z,96
2022-08-03T11:32:19.829Z,96
2022-08-03T11:35:45.157Z,90
2022-08-03T11:39:10.501Z,96
2022-08-03T11:42:35.835Z,96
2022-08-03T11:46:01.188Z,96
2022-08-03T11:49:26.539Z,90
2022-08-03T11:52:51.841Z,90
2022-08-03T11:56:17.181Z,90
2022-08-03T11:59:42.498Z,90
2022-08-03T12:03:07.935Z,90
2022-08-03T12:06:33.300Z,90
2022-08-03T12:09:58.712Z,90
2022-08-03T12:13:57.082Z,84
2022-08-03T12:16:49.452Z,84
2022-08-03T12:20:14.789Z,84
2022-08-03T12:23:40.103Z,84
2022-08-03T12:27:05.430Z,79
2022-08-03T12:30:30.781Z,79
2022-08-03T12:33:56.144Z,79
2022-08-03T12:37:22.375Z,79
2022-08-03T12:40:46.810Z,79
2022-08-03T12:44:12.159Z,79
2022-08-03T12:47:37.482Z,73
2022-08-03T12:51:02.810Z,73
2022-08-03T12:54:28.180Z,73
2022-08-03T12:57:53.545Z,73
2022-08-03T13:01:18.933Z,73
2022-08-03T13:04:44.787Z,68
2022-08-03T13:08:10.243Z,68
2022-08-03T13:11:53.550Z,68
2022-08-03T13:15:00.933Z,68
2022-08-03T13:18:26.362Z,62
2022-08-03T13:21:53.331Z,62
2022-08-03T13:25:17.079Z,62
2022-08-03T13:28:42.477Z,62
2022-08-03T13:32:07.833Z,62
2022-08-03T13:35:33.218Z,56
2022-08-03T13:38:58.592Z,56
2022-08-03T13:42:24.007Z,56
2022-08-03T13:45:52.497Z,56
2022-08-03T13:49:14.694Z,56
2022-08-03T13:52:40.102Z,51
2022-08-03T13:56:05.554Z,51
2022-08-03T13:59:32.375Z,51
2022-08-03T14:03:04.293Z,51
2022-08-03T14:06:24.053Z,51
2022-08-03T14:09:49.441Z,51
2022-08-03T14:13:17.002Z,45
2022-08-03T14:16:40.255Z,45
2022-08-03T14:20:09.566Z,45
2022-08-03T14:23:31.157Z,45
2022-08-03T14:27:02.269Z,45
2022-08-03T15:06:14.339Z,17
2022-08-03T15:09:39.710Z,28
2022-08-03T15:13:05.083Z,34
2022-08-03T15:16:30.524Z,34
2022-08-03T15:20:00.027Z,34
2022-08-03T15:23:21.257Z,34
2022-08-03T15:26:46.728Z,28
2022-08-03T15:30:11.974Z,28
2022-08-03T15:33:37.402Z,28
2022-08-03T15:37:02.808Z,23
2022-08-03T15:40:28.223Z,23
2022-08-03T15:43:53.596Z,23
2022-08-03T15:47:19.195Z,23
2022-08-03T15:50:44.607Z,17
2022-08-03T15:54:09.987Z,17
2022-08-03T15:58:59.213Z,17
2022-08-03T16:01:00.832Z,17
2022-08-03T16:04:26.268Z,17
2022-08-03T16:07:58.732Z,17
2022-08-03T16:11:16.980Z,11
2022-08-03T16:14:51.680Z,17
2022-08-03T16:18:08.466Z,17
2022-08-03T16:21:33.890Z,17
2022-08-03T16:24:59.260Z,11
2022-08-03T16:28:24.669Z,11
2022-08-03T16:31:51.025Z,17
2022-08-03T16:35:19.135Z,11
2022-08-03T16:38:41.750Z,11
2022-08-03T16:42:07.165Z,11
2022-08-03T16:45:32.572Z,11
2022-08-03T16:48:57.995Z,11
2022-08-03T16:52:23.417Z,11
2022-08-03T16:55:52.252Z,11
2022-08-03T16:59:14.189Z,11
2022-08-03T17:02:39.619Z,11
2022-08-03T17:06:04.964Z,11
2022-08-03T17:09:38.121Z,6
2022-08-03T17:12:55.858Z,6
2022-08-03T17:16:21.253Z,6
2022-08-03T17:19:47.064Z,6
2022-08-03T17:23:15.890Z,6
2022-08-03T17:26:37.422Z,6
2022-08-03T17:30:02.794Z,6
2022-08-03T17:33:35.367Z,6
2022-08-03T17:37:12.056Z,6
2022-08-03T17:40:19.046Z,6
2022-08-03T17:44:14.762Z,6
2022-08-03T17:47:09.819Z,6
2022-08-03T17:50:35.310Z,6
2022-08-03T17:54:00.556Z,6
2022-08-03T17:57:26.537Z,0
2022-08-03T18:00:51.691Z,6
2022-08-03T18:04:16.757Z,0
2022-08-03T18:07:42.117Z,0
2022-08-03T18:11:09.875Z,0
2022-08-03T18:14:32.859Z,0
2022-08-03T18:18:02.156Z,0
2022-08-03T18:21:23.629Z,0
2022-08-03T18:24:49.055Z,0
2022-08-03T18:28:14.580Z,0
2022-08-03T18:32:00.415Z,0
2022-08-03T18:35:05.437Z,0
2022-08-03T18:38:30.770Z,0
2022-08-03T18:41:56.185Z,0
2022-08-03T18:45:56.554Z,0
2022-08-03T18:48:46.940Z,0
2022-08-03T18:55:37.697Z,0
2022-08-03T18:59:03.106Z,0
2022-08-03T19:02:28.500Z,0
2022-08-03T19:05:57.869Z,0
2022-08-03T19:09:19.339Z,0
2022-08-03T19:12:44.862Z,0
2022-08-03T19:16:10.131Z,0
2022-08-03T19:19:43.735Z,0
2022-08-03T19:23:00.930Z,0
2022-08-03T19:26:30.715Z,0
2022-08-03T19:29:58.194Z,0
2022-08-03T19:33:17.075Z,0
2022-08-03T19:36:43.844Z,0
2022-08-03T19:40:10.183Z,0
2022-08-03T19:43:49.179Z,0
2022-08-03T19:46:58.560Z,0
2022-08-03T19:50:23.897Z,0
2022-08-03T19:53:49.182Z,0
2022-08-03T19:57:15.968Z,0
2022-08-03T20:00:39.845Z,0
2022-08-03T20:04:05.164Z,0
2022-08-03T20:07:30.603Z,0
2022-08-03T20:10:55.811Z,0
2022-08-03T20:14:26.304Z,0
2022-08-03T20:17:55.789Z,0
2022-08-03T20:21:15.010Z,0
2022-08-03T20:24:37.259Z,0
2022-08-03T20:28:07.548Z,0
2022-08-03T20:31:32.175Z,0
2022-08-03T20:34:53.411Z,0
2022-08-03T20:38:18.689Z,0
2022-08-03T20:41:43.894Z,0
2022-08-03T20:45:13.045Z,0
2022-08-03T20:48:34.505Z,0
2022-08-03T20:51:59.842Z,0
2022-08-03T20:55:47.347Z,0
2022-08-03T20:58:50.953Z,0
2022-08-03T21:02:19.487Z,0
2022-08-03T21:05:48.103Z,0
2022-08-03T21:09:07.582Z,0
2022-08-03T21:12:33.377Z,0
2022-08-03T21:13:06.273Z,0
2022-08-03T21:16:01.260Z,0
2022-08-03T21:19:24.928Z,0
2022-08-03T21:22:50.709Z,0
2022-08-03T21:26:16.484Z,0
2022-08-03T21:29:52.786Z,0
2022-08-03T21:33:08.128Z,0
2022-08-03T21:36:33.852Z,0
2022-08-03T21:39:59.718Z,0
2022-08-03T21:43:25.387Z,0
2022-08-03T21:46:51.172Z,0
2022-08-03T21:50:16.938Z,0
2022-08-03T21:54:00.486Z,0
2022-08-03T21:57:08.489Z,0
2022-08-03T22:00:34.295Z,0
2022-08-03T22:04:00.073Z,0
2022-08-03T22:07:25.823Z,0
2022-08-03T22:10:51.623Z,0
2022-08-03T22:14:17.405Z,0
2022-08-03T22:17:54.345Z,0
2022-08-03T22:21:08.005Z,0
2022-08-03T22:24:33.310Z,0
2022-08-03T22:27:58.611Z,0
2022-08-03T22:31:30.212Z,0
2022-08-03T22:34:49.221Z,0
2022-08-03T22:38:14.549Z,0
2022-08-03T22:41:39.856Z,0
2022-08-03T22:45:05.171Z,0
2022-08-03T22:48:30.486Z,0
2022-08-03T22:51:55.777Z,0
2022-08-03T22:55:24.997Z,0
2022-08-03T22:58:46.417Z,0
2022-08-03T23:02:15.322Z,0
2022-08-03T23:05:59.819Z,0
2022-08-03T23:09:02.361Z,0
2022-08-03T23:12:27.665Z,0
2022-08-03T23:15:52.989Z,0
2022-08-03T23:19:24.934Z,0
2022-08-03T23:22:43.615Z,0
2022-08-03T23:26:08.933Z,0
2022-08-03T23:29:34.259Z,0
2022-08-03T23:32:59.570Z,0
2022-08-03T23:36:30.075Z,0
2022-08-03T23:39:50.190Z,0
2022-08-03T23:43:18.917Z,0
2022-08-03T23:46:40.757Z,0
2022-08-03T23:50:06.107Z,0
2022-08-03T23:53:31.420Z,0
2022-08-03T23:56:56.731Z,0
